createdAt,value
2022-08-22T00:00:08.053Z,1015.39
2022-08-22T00:02:58.750Z,1015.61
2022-08-22T00:03:10.808Z,1015.54
2022-08-22T00:03:11.355Z,1015.54
2022-08-22T00:05:08.559Z,1015.37
2022-08-22T00:10:08.281Z,1015.3
2022-08-22T00:15:42.625Z,1015.33
2022-08-22T00:20:08.495Z,1015.37
2022-08-22T00:25:08.204Z,1015.25
2022-08-22T00:30:08.458Z,1015.39
2022-08-22T00:35:08.131Z,1015.41
2022-08-22T00:40:07.885Z,1015.31
2022-08-22T00:45:18.569Z,1015.38
2022-08-22T00:50:08.269Z,1015.34
2022-08-22T00:55:07.942Z,1015.27
2022-08-22T01:00:12.258Z,1015.38
2022-08-22T01:05:07.959Z,1015.32
2022-08-22T01:10:07.753Z,1015.36
2022-08-22T01:15:08.477Z,1015.31
2022-08-22T01:20:08.187Z,1015.33
2022-08-22T01:25:08.476Z,1015.34
2022-08-22T01:30:08.420Z,1015.41
2022-08-22T01:35:07.908Z,1015.33
2022-08-22T01:40:08.729Z,1015.44
2022-08-22T01:45:08.491Z,1015.44
2022-08-22T01:50:11.751Z,1015.38
2022-08-22T01:55:08.512Z,1015.37
2022-08-22T02:00:08.222Z,1015.37
2022-08-22T02:05:08.131Z,1015.36
2022-08-22T02:10:07.822Z,1015.31
2022-08-22T02:15:08.541Z,1015.3
2022-08-22T02:20:08.260Z,1015.35
2022-08-22T02:25:09.287Z,1015.32
2022-08-22T02:30:08.022Z,1015.39
2022-08-22T02:35:07.745Z,1015.35
2022-08-22T02:40:08.479Z,1015.29
2022-08-22T02:45:08.234Z,1015.2
2022-08-22T02:50:12.785Z,1015.23
2022-08-22T02:55:17.862Z,1015.29
2022-08-22T03:00:31.792Z,1015.17
2022-08-22T03:05:07.835Z,1015.22
2022-08-22T03:10:08.011Z,1015.17
2022-08-22T03:15:07.721Z,1015.21
2022-08-22T03:20:18.443Z,1015.13
2022-08-22T03:25:08.174Z,1015.21
2022-08-22T03:30:07.837Z,1015.22
2022-08-22T03:35:08.544Z,1015.1
2022-08-22T03:40:08.350Z,1015.06
2022-08-22T03:45:13.563Z,1015.05
2022-08-22T03:50:10.740Z,1015.04
2022-08-22T03:55:08.438Z,1014.97
2022-08-22T04:00:08.144Z,1014.91
2022-08-22T04:05:02.114Z,1015.02
2022-08-22T04:10:02.031Z,1015.01
2022-08-22T04:15:02.040Z,1014.94
2022-08-22T04:20:01.915Z,1014.98
2022-08-22T04:25:07.134Z,1014.89
2022-08-22T04:30:02.674Z,1014.88
2022-08-22T04:35:02.539Z,1014.94
2022-08-22T04:40:02.374Z,1014.94
2022-08-22T04:45:02.191Z,1014.98
2022-08-22T04:50:07.381Z,1015.03
2022-08-22T04:55:02.233Z,1014.97
2022-08-22T05:00:02.068Z,1015.07
2022-08-22T05:05:01.910Z,1015.2
2022-08-22T05:10:10.526Z,1015.16
2022-08-22T05:15:02.275Z,1015.17
2022-08-22T05:20:02.841Z,1015.2
2022-08-22T05:25:02.765Z,1015.23
2022-08-22T05:30:02.588Z,1015.19
2022-08-22T05:35:02.449Z,1015.15
2022-08-22T05:40:02.351Z,1015.28
2022-08-22T05:45:02.383Z,1015.3
2022-08-22T05:50:12.226Z,1015.29
2022-08-22T05:55:01.997Z,1015.23
2022-08-22T06:00:01.729Z,1015.34
2022-08-22T06:05:02.526Z,1015.36
2022-08-22T06:10:02.387Z,1015.37
2022-08-22T06:15:02.203Z,1015.44
2022-08-22T06:20:04.458Z,1015.48
2022-08-22T06:25:12.312Z,1015.42
2022-08-22T06:30:02.724Z,1015.4
2022-08-22T06:35:01.780Z,1015.49
2022-08-22T06:40:01.967Z,1015.54
2022-08-22T06:45:02.038Z,1015.51
2022-08-22T06:50:02.043Z,1015.45
2022-08-22T06:55:02.126Z,1015.52
2022-08-22T07:00:02.004Z,1015.59
2022-08-22T07:05:01.919Z,1015.58
2022-08-22T07:10:02.743Z,1015.63
2022-08-22T07:15:09.562Z,1015.67
2022-08-22T07:20:12.390Z,1015.64
2022-08-22T07:25:02.268Z,1015.64
2022-08-22T07:30:02.119Z,1015.7
2022-08-22T07:35:01.902Z,1015.65
2022-08-22T07:40:02.772Z,1015.81
2022-08-22T07:45:02.659Z,1015.8
2022-08-22T07:50:02.483Z,1015.75
2022-08-22T07:55:02.361Z,1015.77
2022-08-22T08:00:02.243Z,1015.75
2022-08-22T08:05:02.171Z,1015.71
2022-08-22T08:10:02.128Z,1015.61
2022-08-22T08:15:02.184Z,1015.72
2022-08-22T08:20:02.064Z,1015.66
2022-08-22T08:25:02.218Z,1015.62
2022-08-22T08:30:02.026Z,1015.57
2022-08-22T08:35:01.884Z,1015.47
2022-08-22T08:40:02.530Z,1015.43
2022-08-22T08:45:02.476Z,1015.46
2022-08-22T08:50:02.235Z,1015.41
2022-08-22T08:55:21.889Z,1015.32
2022-08-22T09:00:02.638Z,1015.23
2022-08-22T09:05:02.682Z,1015.16
2022-08-22T09:10:02.796Z,1015.19
2022-08-22T09:15:14.523Z,1015.24
2022-08-22T09:20:02.439Z,1015.19
2022-08-22T09:25:06.034Z,1015.18
2022-08-22T09:30:02.459Z,1015.13
2022-08-22T09:35:02.585Z,1015.17
2022-08-22T09:40:16.019Z,1015.09
2022-08-22T09:45:02.701Z,1015.09
2022-08-22T09:50:01.820Z,1015.13
2022-08-22T09:55:02.601Z,1015.16
2022-08-22T10:00:02.406Z,1015.09
2022-08-22T10:05:03.947Z,1015.12
2022-08-22T10:10:12.061Z,1015.01
2022-08-22T10:15:01.829Z,1015.05
2022-08-22T10:20:02.740Z,1014.97
2022-08-22T10:25:02.584Z,1014.91
2022-08-22T10:30:08.690Z,1014.98
2022-08-22T10:35:02.676Z,1014.9
2022-08-22T10:40:02.474Z,1014.74
2022-08-22T10:45:02.404Z,1014.77
2022-08-22T10:50:02.550Z,1014.66
2022-08-22T10:55:05.724Z,1014.64
2022-08-22T11:00:11.673Z,1014.55
2022-08-22T11:05:02.568Z,1014.53
2022-08-22T11:10:02.475Z,1014.46
2022-08-22T11:15:03.014Z,1014.43
2022-08-22T11:20:02.015Z,1014.39
2022-08-22T11:25:04.370Z,1014.38
2022-08-22T11:30:02.686Z,1014.42
2022-08-22T11:35:02.529Z,1014.3
2022-08-22T11:40:02.463Z,1014.3
2022-08-22T11:45:02.446Z,1014.25
2022-08-22T11:50:02.392Z,1014.27
2022-08-22T11:55:02.568Z,1014.28
2022-08-22T12:00:02.502Z,1014.26
2022-08-22T12:05:02.453Z,1014.19
2022-08-22T12:10:13.815Z,1014.23
2022-08-22T12:15:02.996Z,1014.14
2022-08-22T12:20:16.146Z,1014.06
2022-08-22T12:25:03.225Z,1014.01
2022-08-22T12:30:02.073Z,1014.08
2022-08-22T12:35:14.078Z,1013.93
2022-08-22T12:40:02.406Z,1013.82
2022-08-22T12:45:02.303Z,1013.92
2022-08-22T12:50:02.324Z,1013.71
2022-08-22T12:55:02.085Z,1013.78
2022-08-22T13:00:02.009Z,1013.69
2022-08-22T13:05:01.795Z,1013.7
2022-08-22T13:10:08.716Z,1013.67
2022-08-22T13:15:02.557Z,1013.67
2022-08-22T13:20:02.419Z,1013.52
2022-08-22T13:25:02.255Z,1013.51
2022-08-22T13:30:01.803Z,1013.43
2022-08-22T13:35:01.814Z,1013.47
2022-08-22T13:40:02.727Z,1013.4
2022-08-22T13:45:04.356Z,1013.36
2022-08-22T13:50:02.731Z,1013.29
2022-08-22T13:55:02.549Z,1013.27
2022-08-22T14:00:12.411Z,1013.29
2022-08-22T14:05:02.165Z,1013.3
2022-08-22T14:10:02.559Z,1013.24
2022-08-22T14:15:02.580Z,1013.24
2022-08-22T14:20:02.523Z,1013.25
2022-08-22T14:25:02.628Z,1013.18
2022-08-22T14:30:02.817Z,1013.2
2022-08-22T14:35:02.877Z,1013.2
2022-08-22T14:40:02.706Z,1013.09
2022-08-22T14:45:02.005Z,1013.11
2022-08-22T14:50:02.732Z,1013.03
2022-08-22T14:55:06.250Z,1013.04
2022-08-22T15:00:02.062Z,1012.95
2022-08-22T15:05:01.937Z,1013.0
2022-08-22T15:10:03.122Z,1012.9
2022-08-22T15:15:02.245Z,1012.89
2022-08-22T15:20:12.094Z,1012.87
2022-08-22T15:25:01.974Z,1012.82
2022-08-22T15:30:01.759Z,1012.79
2022-08-22T15:35:02.472Z,1012.79
2022-08-22T15:40:02.978Z,1012.74
2022-08-22T15:45:02.540Z,1012.71
2022-08-22T15:50:02.532Z,1012.77
2022-08-22T15:55:02.338Z,1012.71
2022-08-22T16:00:12.663Z,1012.71
2022-08-22T16:05:02.483Z,1012.78
2022-08-22T16:10:02.368Z,1012.8
2022-08-22T16:15:02.174Z,1012.68
2022-08-22T16:20:02.024Z,1012.62
2022-08-22T16:25:01.856Z,1012.66
2022-08-22T16:30:02.680Z,1012.63
2022-08-22T16:35:02.534Z,1012.65
2022-08-22T16:40:02.500Z,1012.61
2022-08-22T16:45:02.373Z,1012.65
2022-08-22T16:50:12.445Z,1012.61
2022-08-22T16:55:02.308Z,1012.68
2022-08-22T17:00:02.149Z,1012.66
2022-08-22T17:05:02.269Z,1012.58
2022-08-22T17:10:02.539Z,1012.61
2022-08-22T17:15:02.477Z,1012.6
2022-08-22T17:20:02.425Z,1012.57
2022-08-22T17:25:02.379Z,1012.57
2022-08-22T17:30:02.315Z,1012.57
2022-08-22T17:35:04.415Z,1012.52
2022-08-22T17:40:02.399Z,1012.49
2022-08-22T17:45:02.272Z,1012.54
2022-08-22T17:50:02.093Z,1012.49
2022-08-22T17:55:02.170Z,1012.6
2022-08-22T18:00:01.948Z,1012.65
2022-08-22T18:05:01.811Z,1012.66
2022-08-22T18:10:12.618Z,1012.67
2022-08-22T18:15:02.447Z,1012.69
2022-08-22T18:20:02.304Z,1012.66
2022-08-22T18:25:02.092Z,1012.78
2022-08-22T18:30:01.964Z,1012.8
2022-08-22T18:35:11.747Z,1012.71
2022-08-22T18:40:02.595Z,1012.77
2022-08-22T18:45:02.569Z,1012.9
2022-08-22T18:50:02.390Z,1012.92
2022-08-22T18:55:02.202Z,1012.98
2022-08-22T19:00:02.076Z,1012.94
2022-08-22T19:05:11.866Z,1012.97
2022-08-22T19:10:02.781Z,1013.02
2022-08-22T19:15:02.844Z,1013.09
2022-08-22T19:20:02.698Z,1013.13
2022-08-22T19:25:02.525Z,1013.18
2022-08-22T19:30:02.363Z,1013.23
2022-08-22T19:35:02.341Z,1013.29
2022-08-22T19:40:02.333Z,1013.23
2022-08-22T19:45:05.005Z,1013.26
2022-08-22T19:50:02.018Z,1013.25
2022-08-22T19:55:02.721Z,1013.22
2022-08-22T20:00:02.651Z,1013.24
2022-08-22T20:05:02.588Z,1013.26
2022-08-22T20:10:02.604Z,1013.21
2022-08-22T20:15:02.573Z,1013.27
2022-08-22T20:20:18.724Z,1013.21
2022-08-22T20:25:02.015Z,1013.1
2022-08-22T20:30:01.972Z,1013.18
2022-08-22T20:35:21.712Z,1013.1
2022-08-22T20:40:08.164Z,1013.16
2022-08-22T20:45:12.191Z,1013.11
2022-08-22T20:50:08.233Z,1013.11
2022-08-22T20:55:07.917Z,1013.09
2022-08-22T21:00:08.624Z,1013.04
2022-08-22T21:05:08.326Z,1013.03
2022-08-22T21:10:22.245Z,1013.03
2022-08-22T21:15:08.589Z,1013.02
2022-08-22T21:20:08.342Z,1013.09
2022-08-22T21:25:08.086Z,1013.01
2022-08-22T21:30:07.793Z,1013.05
2022-08-22T21:35:08.468Z,1013.03
2022-08-22T21:40:08.210Z,1013.12
2022-08-22T21:45:08.336Z,1013.09
2022-08-22T21:50:08.038Z,1013.0
2022-08-22T21:55:07.719Z,1013.03
2022-08-22T22:00:08.438Z,1013.06
2022-08-22T22:05:08.465Z,1013.04
2022-08-22T22:10:08.184Z,1013.09
2022-08-22T22:15:07.883Z,1013.08
2022-08-22T22:20:08.631Z,1013.08
2022-08-22T22:25:39.801Z,1013.02
2022-08-22T22:30:08.619Z,1013.09
2022-08-22T22:35:08.339Z,1013.1
2022-08-22T22:40:08.113Z,1013.12
2022-08-22T22:45:07.876Z,1013.11
2022-08-22T22:50:08.546Z,1013.06
2022-08-22T22:55:08.211Z,1013.08
2022-08-22T23:01:00.863Z,1013.13
2022-08-22T23:05:07.823Z,1013.04
2022-08-22T23:10:08.597Z,1012.98
2022-08-22T23:15:08.295Z,1012.97
2022-08-22T23:20:07.989Z,1013.05
2022-08-22T23:25:07.691Z,1012.99
2022-08-22T23:30:08.407Z,1013.07
2022-08-22T23:35:08.075Z,1013.13
2022-08-22T23:40:07.894Z,1013.18
2022-08-22T23:45:07.665Z,1013.14
2022-08-22T23:50:08.352Z,1013.17
2022-08-22T23:55:08.057Z,1013.19
